createdAt,value
2019-04-03T00:09:55.378Z,38.21
2019-04-03T00:20:00.894Z,38.42
2019-04-03T00:30:09.510Z,38.54
2019-04-03T00:40:15.236Z,39.11
2019-04-03T00:50:20.494Z,39.71
2019-04-03T01:00:26.395Z,40.07
2019-04-03T01:10:32.412Z,40.21
2019-04-03T01:20:37.805Z,40.86
2019-04-03T01:30:44.230Z,41.15
2019-04-03T01:40:50.670Z,42.07
2019-04-03T01:50:59.358Z,42.06
2019-04-03T02:01:06.324Z,42.56
2019-04-03T02:11:11.920Z,42.99
2019-04-03T02:21:17.082Z,43.08
2019-04-03T02:31:22.244Z,44.66
2019-04-03T02:41:27.753Z,44.85
2019-04-03T02:51:33.266Z,44.70
2019-04-03T03:01:39.838Z,44.80
2019-04-03T03:11:46.154Z,45.73
2019-04-03T03:21:53.761Z,46.77
2019-04-03T03:32:11.641Z,47.36
2019-04-03T03:42:06.846Z,47.09
2019-04-03T03:52:14.400Z,47.14
2019-04-03T04:02:20.493Z,48.04
2019-04-03T04:12:25.847Z,49.07
2019-04-03T04:22:31.571Z,49.80
2019-04-03T04:32:36.915Z,50.42
2019-04-03T04:42:42.165Z,50.67
2019-04-03T04:52:47.300Z,50.87
2019-04-03T05:02:52.598Z,49.32
2019-04-03T05:12:58.331Z,47.35
2019-04-03T05:23:03.840Z,45.22
2019-04-03T05:33:11.233Z,44.64
2019-04-03T05:43:17.212Z,44.42
2019-04-03T05:53:22.405Z,43.93
2019-04-03T06:03:39.231Z,42.45
2019-04-03T06:13:34.732Z,39.68
2019-04-03T06:23:40.126Z,39.68
2019-04-03T06:33:45.450Z,35.74
2019-04-03T06:43:53.989Z,36.57
2019-04-03T06:53:59.621Z,34.75
2019-04-03T07:04:06.448Z,32.85
2019-04-03T07:14:12.214Z,32.48
2019-04-03T07:24:17.652Z,30.66
2019-04-03T07:34:23.171Z,32.14
2019-04-03T07:44:29.828Z,34.21
2019-04-03T07:54:35.050Z,30.84
2019-04-03T08:04:40.340Z,28.80
2019-04-03T08:14:45.520Z,28.96
2019-04-03T08:24:53.098Z,31.34
2019-04-03T08:34:57.953Z,26.99
2019-04-03T08:45:05.768Z,31.53
2019-04-03T08:55:12.864Z,32.38
2019-04-03T09:05:19.358Z,31.71
2019-04-03T09:15:25.846Z,31.04
2019-04-03T09:25:33.029Z,29.44
2019-04-03T09:35:38.750Z,30.37
2019-04-03T09:45:44.747Z,28.82
2019-04-03T09:55:49.979Z,29.07
2019-04-03T10:05:55.380Z,29.22
2019-04-03T10:16:03.220Z,26.60
2019-04-03T10:26:08.773Z,29.18
2019-04-03T10:36:17.272Z,29.15
2019-04-03T10:46:21.289Z,28.60
2019-04-03T10:56:26.733Z,28.91
2019-04-03T11:06:32.366Z,27.03
2019-04-03T11:16:39.399Z,27.37
2019-04-03T11:26:45.203Z,26.98
2019-04-03T11:36:50.753Z,28.19
2019-04-03T11:46:56.325Z,29.07
2019-04-03T11:57:02.731Z,28.29
2019-04-03T12:07:07.799Z,29.29
2019-04-03T12:17:12.946Z,29.49
2019-04-03T12:27:18.400Z,27.94
2019-04-03T12:37:25.059Z,29.07
2019-04-03T12:47:30.675Z,28.99
2019-04-03T12:57:38.939Z,28.64
2019-04-03T13:07:45.737Z,29.51
2019-04-03T13:17:50.229Z,30.18
2019-04-03T13:27:55.438Z,30.70
2019-04-03T13:38:00.854Z,30.57
2019-04-03T13:48:06.539Z,30.58
2019-04-03T13:58:12.376Z,29.98
2019-04-03T14:08:17.924Z,30.12
2019-04-03T14:18:23.832Z,30.52
2019-04-03T14:28:29.515Z,30.52
2019-04-03T14:38:35.441Z,31.00
2019-04-03T14:48:41.632Z,31.15
2019-04-03T14:58:47.267Z,31.71
2019-04-03T15:08:54.688Z,32.34
2019-04-03T15:19:02.089Z,32.89
2019-04-03T15:29:07.795Z,33.42
2019-04-03T15:39:16.499Z,33.97
2019-04-03T15:49:21.882Z,33.97
2019-04-03T15:59:29.681Z,34.42
2019-04-03T16:09:34.798Z,35.14
2019-04-03T16:19:40.861Z,35.43
2019-04-03T16:29:48.145Z,36.08
2019-04-03T16:39:53.752Z,36.22
2019-04-03T16:50:00.341Z,37.41
2019-04-03T17:00:10.158Z,37.45
2019-04-03T17:10:16.110Z,37.30
2019-04-03T17:20:22.969Z,37.37
2019-04-03T17:30:29.633Z,38.01
2019-04-03T17:40:36.570Z,37.94
2019-04-03T17:50:42.768Z,38.00
2019-04-03T18:00:51.673Z,38.41
2019-04-03T18:10:55.990Z,38.65
2019-04-03T18:21:03.489Z,39.35
2019-04-03T18:31:09.443Z,38.72
2019-04-03T18:41:16.983Z,38.40
2019-04-03T18:51:22.848Z,36.54
2019-04-03T19:01:28.788Z,36.09
2019-04-03T19:11:35.704Z,36.17
2019-04-03T19:21:41.672Z,36.65
2019-04-03T19:31:47.595Z,36.40
2019-04-03T19:41:53.377Z,36.66
2019-04-03T19:51:58.960Z,36.73
2019-04-03T20:02:04.691Z,36.77
2019-04-03T20:12:10.502Z,37.32
2019-04-03T20:22:16.219Z,37.39
2019-04-03T20:32:22.047Z,37.79
2019-04-03T20:42:27.928Z,38.41
2019-04-03T20:52:33.633Z,38.50
2019-04-03T21:02:41.203Z,39.17
2019-04-03T21:12:46.277Z,39.71
2019-04-03T21:22:51.648Z,39.93
2019-04-03T21:32:58.011Z,40.56
2019-04-03T21:43:03.818Z,41.31
2019-04-03T21:53:09.130Z,41.17
2019-04-03T22:03:14.427Z,41.93
2019-04-03T22:13:19.929Z,41.78
2019-04-03T22:23:25.151Z,42.39
2019-04-03T22:33:31.374Z,42.83
2019-04-03T22:43:36.588Z,42.57
2019-04-03T22:53:42.234Z,42.55
2019-04-03T23:03:49.261Z,42.52
2019-04-03T23:13:54.747Z,43.00
2019-04-03T23:24:00.006Z,43.30
2019-04-03T23:34:05.324Z,42.72
2019-04-03T23:44:11.662Z,43.69
2019-04-03T23:54:18.031Z,43.38
